Time;durP1;ratioP1;P1;durP2;ratioP2;P2;SDS_P1;SDS_P2;PMS_P1;PMS_P2;Temp;Humidity;BMP_temperature;BMP_pressure;BME280_temperature;BME280_humidity;BME280_pressure;Samples;Min_cycle;Max_cycle;Signal;HPM_P1;HPM_P2
2023/02/02 00:00:55;;;;;;;;;;;;;;;4.66;100.00;100433.69;4992512;28;19918;-87
2023/02/02 00:03:20;;;;;;;;;;;;;;;4.71;100.00;100436.28;4993529;28;19917;-85
2023/02/02 00:05:48;;;;;;;;;;;;;;;4.77;100.00;100427.47;4992324;28;19917;-85
2023/02/02 00:08:13;;;;;;;;;;;;;;;4.80;100.00;100417.78;4992565;28;19918;-86
2023/02/02 00:10:39;;;;;;;;;;;;;;;4.86;100.00;100409.00;4993265;28;19932;-86
2023/02/02 00:13:06;;;;;;;;;;;;;;;4.89;100.00;100414.22;4992272;28;19969;-86
2023/02/02 00:15:32;;;;;;;;;;;;;;;4.92;100.00;100414.22;4984183;28;20020;-87
2023/02/02 00:17:57;;;;;;;;;;;;;;;4.97;100.00;100422.03;4992385;28;20009;-86
2023/02/02 00:20:22;;;;;;;;;;;;;;;5.00;100.00;100414.13;5006397;28;20323;-85
2023/02/02 03:26:04;;;;;;;;;;;;;;;3.45;100.00;100438.75;4965850;28;20184;-86
2023/02/02 03:28:30;;;;;;;;;;;;;;;3.48;100.00;100437.00;4974480;28;19926;-87
2023/02/02 03:31:07;;;;;;;;;;;;;;;;;;;;;
2023/02/02 03:33:37;;;;;;;;;;;;;;;3.39;100.00;100438.78;4974370;28;19918;-86
2023/02/02 03:36:02;;;;;;;;;;;;;;;3.40;100.00;100439.66;4973239;28;20376;-87
2023/02/02 03:38:28;;;;;;;;;;;;;;;3.36;100.00;100440.53;4971780;28;19918;-88
2023/02/02 03:40:53;;;;;;;;;;;;;;;3.30;100.00;100438.78;4974398;28;20427;-88
2023/02/02 03:43:20;;;;;;;;;;;;;;;3.27;100.00;100444.03;4989334;28;19922;-87
2023/02/02 03:45:45;;;;;;;;;;;;;;;3.21;100.00;100444.94;4974364;28;20347;-85
2023/02/02 03:48:13;;;;;;;;;;;;;;;3.23;100.00;100450.19;4989240;28;19918;-86
2023/02/02 03:50:38;;;;;;;;;;;;;;;3.17;100.00;100448.44;4974258;28;20444;-85
2023/02/02 03:53:04;;;;;;;;;;;;;;;3.16;100.00;100451.03;4972929;28;19922;-88
2023/02/02 03:55:29;;;;;;;;;;;;;;;3.14;100.00;100443.19;4989139;28;20348;-88
2023/02/02 03:57:55;;;;;;;;;;;;;;;3.08;100.00;100451.94;4989178;28;19918;-89
2023/02/02 04:00:23;;;;;;;;;;;;;;;3.05;100.00;100453.72;4974303;28;20251;-89
2023/02/02 04:02:48;;;;;;;;;;;;;;;3.02;100.00;100453.72;4972857;28;19919;-87
2023/02/02 04:05:13;;;;;;;;;;;;;;;2.99;100.00;100459.81;4974291;28;19929;-87
2023/02/02 04:07:39;;;;;;;;;;;;;;;3.00;100.00;100450.19;4974061;28;19919;-87
2023/02/02 04:10:04;;;;;;;;;;;;;;;3.00;100.00;100452.81;4975975;28;19918;-88
2023/02/02 04:12:29;;;;;;;;;;;;;;;3.02;100.00;100459.81;4977842;28;20057;-87
2023/02/02 04:14:55;;;;;;;;;;;;;;;2.97;100.00;100466.81;4992798;28;19965;-87
2023/02/02 04:17:22;;;;;;;;;;;;;;;2.91;100.00;100458.94;4992721;28;19918;-87
2023/02/02 04:19:52;;;;;;;;;;;;;;;2.90;100.00;100470.28;4992551;28;19922;-87
2023/02/02 04:22:20;;;;;;;;;;;;;;;2.91;100.00;100472.03;4977573;28;19922;-86
2023/02/02 04:24:47;;;;;;;;;;;;;;;2.89;100.00;100473.78;4991228;28;20284;-86
2023/02/02 04:27:17;;;;;;;;;;;;;;;2.87;100.00;100475.53;4977638;28;19922;-87
2023/02/02 04:29:45;;;;;;;;;;;;;;;2.85;100.00;100474.66;4977470;28;20293;-86
2023/02/02 04:32:13;;;;;;;;;;;;;;;2.80;100.00;100471.19;4955753;29;20322;-87
2023/02/02 04:34:58;;;;;;;;;;;;;;;2.79;100.00;100466.81;4955878;29;19925;-90
2023/02/02 04:37:26;;;;;;;;;;;;;;;2.79;100.00;100461.56;4955872;29;19922;-89
2023/02/02 04:40:01;;;;;;;;;;;;;;;;;;;;;
2023/02/02 04:42:31;;;;;;;;;;;;;;;2.77;100.00;100469.41;4936755;29;19929;-89
2023/02/02 08:59:29;;;;;;;;;;;;;;;5.45;100.00;100635.31;4948405;28;19942;-87
2023/02/02 09:01:54;;;;;;;;;;;;;;;5.46;100.00;100637.06;4956002;29;19922;-88
2023/02/02 09:04:19;;;;;;;;;;;;;;;5.48;100.00;100630.03;4957516;29;20493;-87
2023/02/02 09:06:45;;;;;;;;;;;;;;;5.52;100.00;100625.59;4957746;29;19981;-86
2023/02/02 09:09:12;;;;;;;;;;;;;;;5.52;100.00;100626.50;4957575;29;19958;-87
2023/02/02 09:11:38;;;;;;;;;;;;;;;5.54;100.00;100626.47;4955249;29;20301;-87
2023/02/02 09:14:06;;;;;;;;;;;;;;;5.56;100.00;100632.59;4952429;29;19929;-87
2023/02/02 09:16:32;;;;;;;;;;;;;;;5.56;100.00;100617.69;4936890;29;19983;-92
2023/02/02 09:18:57;;;;;;;;;;;;;;;5.56;100.00;100617.69;4937298;29;20334;-88
2023/02/02 09:21:23;;;;;;;;;;;;;;;5.59;100.00;100633.44;4947555;29;20021;-87
2023/02/02 09:23:51;;;;;;;;;;;;;;;5.60;100.00;100640.44;4955580;29;19958;-87
2023/02/02 09:26:18;;;;;;;;;;;;;;;5.62;100.00;100651.81;4951419;29;20421;-86
2023/02/02 09:28:48;;;;;;;;;;;;;;;5.66;100.00;100655.28;4954819;29;19919;-86
2023/02/02 09:31:14;;;;;;;;;;;;;;;5.66;100.00;100650.00;4954369;29;20045;-90
2023/02/02 09:33:39;;;;;;;;;;;;;;;5.66;100.00;100660.53;4955876;29;19944;-86
2023/02/02 09:36:05;;;;;;;;;;;;;;;5.69;100.00;100665.78;4957098;29;19974;-86
2023/02/02 09:38:30;;;;;;;;;;;;;;;5.70;100.00;100664.03;4956934;29;20392;-87
2023/02/02 09:40:55;;;;;;;;;;;;;;;5.71;100.00;100665.75;4955537;29;19962;-86
2023/02/02 09:43:41;;;;;;;;;;;;;;;5.74;100.00;100663.09;4953337;29;19987;-86
2023/02/02 09:46:32;;;;;;;;;;;;;;;5.75;100.00;100665.72;4939943;29;19931;-87
2023/02/02 09:49:02;;;;;;;;;;;;;;;5.75;100.00;100662.22;4951525;29;19923;-87
2023/02/02 09:51:38;;;;;;;;;;;;;;;5.77;100.00;100670.97;4954075;29;19937;-87
2023/02/02 09:54:23;;;;;;;;;;;;;;;5.79;100.00;100672.72;4954015;29;20024;-86
2023/02/02 09:56:54;;;;;;;;;;;;;;;5.79;100.00;100672.72;4946753;29;19942;-89
2023/02/02 09:59:21;;;;;;;;;;;;;;;5.81;100.00;100683.22;4942536;29;19923;-87
2023/02/02 10:02:06;;;;;;;;;;;;;;;5.82;100.00;100688.47;4955226;29;19997;-93
2023/02/02 10:04:35;;;;;;;;;;;;;;;5.83;100.00;100697.22;4956453;29;19918;-86
2023/02/02 10:07:11;;;;;;;;;;;;;;;5.85;100.00;100705.97;4950582;28;20395;-88
2023/02/02 10:10:14;;;;;;;;;;;;;;;5.87;100.00;100701.56;4937281;29;19962;-86
2023/02/02 10:12:46;;;;;;;;;;;;;;;5.88;100.00;100697.19;4895877;29;19920;-85
2023/02/02 10:15:26;;;;;;;;;;;;;;;5.89;100.00;100686.66;4943569;29;20037;-87
2023/02/02 10:18:01;;;;;;;;;;;;;;;5.90;100.00;100690.13;4954842;29;19997;-88
2023/02/02 10:20:35;;;;;;;;;;;;;;;5.90;100.00;100679.63;4945537;29;19986;-86
2023/02/02 10:23:23;;;;;;;;;;;;;;;5.93;100.00;100690.97;4937120;29;20282;-86
2023/02/02 10:26:08;;;;;;;;;;;;;;;5.94;100.00;100691.88;4929113;29;19990;-88
2023/02/02 10:28:42;;;;;;;;;;;;;;;5.95;100.00;100696.22;4924084;29;20303;-87
2023/02/02 10:31:18;;;;;;;;;;;;;;;5.95;100.00;100709.38;4940621;29;20025;-87
2023/02/02 10:33:49;;;;;;;;;;;;;;;5.97;100.00;100702.41;4954420;29;19926;-87
2023/02/02 10:36:46;;;;;;;;;;;;;;;5.99;100.00;100708.50;4956102;29;20396;-87
2023/02/02 10:39:30;;;;;;;;;;;;;;;6.00;100.00;100720.78;4904423;29;19923;-88
2023/02/02 10:42:05;;;;;;;;;;;;;;;6.03;100.00;100722.50;4955514;29;19918;-86
2023/02/02 10:44:41;;;;;;;;;;;;;;;6.05;100.00;100718.97;4952562;29;19930;-87
2023/02/02 10:47:12;;;;;;;;;;;;;;;6.03;100.00;100717.22;4955820;29;19966;-88
2023/02/02 10:49:38;;;;;;;;;;;;;;;6.05;100.00;100710.19;4955781;29;19926;-86
2023/02/02 10:52:13;;;;;;;;;;;;;;;6.05;100.00;100726.88;4953656;29;19954;-86
2023/02/02 10:54:57;;;;;;;;;;;;;;;6.08;100.00;100720.69;4952112;29;20424;-86
2023/02/02 10:57:44;;;;;;;;;;;;;;;6.07;100.00;100734.75;4954474;29;19937;-86
2023/02/02 11:00:18;;;;;;;;;;;;;;;6.09;100.00;100738.22;4954416;29;20372;-86
2023/02/02 11:02:43;;;;;;;;;;;;;;;6.11;100.00;100731.19;4954044;29;19934;-86
2023/02/02 11:08:13;;;;;;;;;;;;;;;5.98;100.00;100733.06;4955915;29;20277;-86
2023/02/02 11:10:38;;;;;;;;;;;;;;;4.97;100.00;100734.59;4954109;29;19925;-85
2023/02/02 11:13:04;;;;;;;;;;;;;;;4.58;100.00;100729.50;4954198;29;19919;-86
2023/02/02 11:15:30;;;;;;;;;;;;;;;4.39;100.00;100728.69;4955382;29;19918;-86
2023/02/02 11:18:11;;;;;;;;;;;;;;;4.26;100.00;100733.09;4952654;28;19941;-86
2023/02/02 11:20:37;;;;;;;;;;;;;;;4.13;100.00;100723.47;4936125;29;19919;-86
2023/02/02 11:23:04;;;;;;;;;;;;;;;4.02;100.00;100722.63;4936089;29;19926;-88
2023/02/02 11:25:33;;;;;;;;;;;;;;;3.94;100.00;100741.88;4950225;29;19945;-87
2023/02/02 11:28:17;;;;;;;;;;;;;;;3.86;100.00;100733.13;4953285;29;19927;-86
2023/02/02 11:30:45;;;;;;;;;;;;;;;3.84;100.00;100734.00;4954508;29;19926;-86
2023/02/02 11:33:26;;;;;;;;;;;;;;;3.77;100.00;100730.50;4954236;29;20021;-88
2023/02/02 11:35:53;;;;;;;;;;;;;;;3.69;100.00;100725.25;4953616;29;19927;-85
2023/02/02 11:38:18;;;;;;;;;;;;;;;3.70;100.00;100724.41;4953928;29;19926;-86
2023/02/02 11:40:45;;;;;;;;;;;;;;;3.61;100.00;100717.38;4953258;29;19923;-86
2023/02/02 11:43:17;;;;;;;;;;;;;;;3.61;100.00;100717.38;4952968;29;19922;-86
2023/02/02 11:45:43;;;;;;;;;;;;;;;3.59;100.00;100718.25;4953684;29;19918;-86
2023/02/02 11:48:17;;;;;;;;;;;;;;;3.54;100.00;100709.50;4953582;29;20293;-86
2023/02/02 11:50:46;;;;;;;;;;;;;;;3.50;100.00;100719.13;4953666;29;19922;-87
2023/02/02 11:53:31;;;;;;;;;;;;;;;3.49;100.00;100711.25;4953624;29;20396;-87
2023/02/02 11:56:00;;;;;;;;;;;;;;;3.44;100.00;100709.50;4953621;29;19925;-86
2023/02/02 11:58:26;;;;;;;;;;;;;;;3.41;100.00;100700.78;4946898;28;20358;-86
2023/02/02 12:00:59;;;;;;;;;;;;;;;3.38;100.00;100698.16;4954866;29;19930;-87
2023/02/02 12:03:32;;;;;;;;;;;;;;;3.37;100.00;100702.53;4937350;29;19919;-86
2023/02/02 12:05:57;;;;;;;;;;;;;;;3.35;100.00;100704.28;4953561;29;20389;-87
2023/02/02 12:08:23;;;;;;;;;;;;;;;3.32;100.00;100688.56;4952639;29;19922;-87
2023/02/02 12:11:00;;;;;;;;;;;;;;;3.29;100.00;100693.78;4942991;29;19919;-86
2023/02/02 12:13:25;;;;;;;;;;;;;;;3.26;100.00;100689.41;4933495;29;19919;-86
2023/02/02 12:15:58;;;;;;;;;;;;;;;3.20;100.00;100691.16;4954532;29;19919;-87
2023/02/02 12:18:26;;;;;;;;;;;;;;;3.17;100.00;100685.91;4953468;29;19922;-87
2023/02/02 12:20:54;;;;;;;;;;;;;;;3.20;100.00;100699.00;4954732;29;19966;-88
2023/02/02 12:23:22;;;;;;;;;;;;;;;3.21;100.00;100695.53;4954834;29;19918;-86
2023/02/02 12:26:01;;;;;;;;;;;;;;;3.13;100.00;100705.06;4952108;29;19923;-90
2023/02/02 12:28:41;;;;;;;;;;;;;;;3.04;100.00;100696.34;4953625;29;20330;-91
2023/02/02 12:31:18;;;;;;;;;;;;;;;3.07;100.00;100704.19;4956595;28;19929;-85
2023/02/02 12:33:52;;;;;;;;;;;;;;;3.07;100.00;100704.19;4958194;29;20065;-84
2023/02/02 12:36:40;;;;;;;;;;;;;;;3.05;100.00;100702.47;4956296;29;19922;-86
2023/02/02 12:39:29;;;;;;;;;;;;;;;3.03;100.00;100709.44;4928068;28;20061;-87
2023/02/02 12:42:11;;;;;;;;;;;;;;;3.00;100.00;100691.97;4939465;29;19923;-88
2023/02/02 12:44:48;;;;;;;;;;;;;;;3.00;100.00;100694.59;4952584;29;20294;-86
2023/02/02 12:47:28;;;;;;;;;;;;;;;2.97;100.00;100696.31;4952732;29;20029;-85
2023/02/02 12:50:19;;;;;;;;;;;;;;;2.93;100.00;100698.06;4955698;29;19926;-86
2023/02/02 12:53:00;;;;;;;;;;;;;;;2.90;100.00;100692.81;4952745;29;19930;-87
2023/02/02 12:55:34;;;;;;;;;;;;;;;2.89;100.00;100693.69;4937783;29;19919;-87
2023/02/02 12:58:00;;;;;;;;;;;;;;;2.88;100.00;100699.78;4948010;29;19932;-86
2023/02/02 13:00:38;;;;;;;;;;;;;;;2.80;100.00;100698.91;4956796;29;19922;-87
2023/02/02 13:03:09;;;;;;;;;;;;;;;2.87;100.00;100701.53;4957807;29;20009;-85
2023/02/02 13:05:53;;;;;;;;;;;;;;;2.80;100.00;100702.38;4956153;29;19918;-86
2023/02/02 13:08:27;;;;;;;;;;;;;;;2.80;100.00;100705.00;4955929;29;19950;-86
2023/02/02 13:10:56;;;;;;;;;;;;;;;2.74;100.00;100710.19;4955658;29;19926;-87
2023/02/02 13:13:23;;;;;;;;;;;;;;;2.78;100.00;100698.88;4955535;29;20001;-86
2023/02/02 13:15:51;;;;;;;;;;;;;;;2.73;100.00;100704.09;4956191;29;20027;-86
2023/02/02 13:18:24;;;;;;;;;;;;;;;2.73;100.00;100705.84;4957384;29;19962;-86
2023/02/02 13:21:09;;;;;;;;;;;;;;;2.72;100.00;100702.34;4955132;29;19922;-85
2023/02/02 13:23:47;;;;;;;;;;;;;;;2.71;100.00;100704.94;4955855;29;19922;-86
2023/02/02 13:26:18;;;;;;;;;;;;;;;2.71;100.00;100705.84;4954947;29;19973;-88
2023/02/02 13:28:50;;;;;;;;;;;;;;;2.70;100.00;100703.22;4948716;29;20305;-87
2023/02/02 13:31:26;;;;;;;;;;;;;;;2.68;100.00;100699.72;4940974;29;19973;-86
2023/02/02 13:34:04;;;;;;;;;;;;;;;2.67;100.00;100698.84;4944352;29;19926;-87
2023/02/02 13:36:34;;;;;;;;;;;;;;;2.67;100.00;100706.69;4955893;29;19973;-86
2023/02/02 13:39:02;;;;;;;;;;;;;;;2.68;100.00;100705.84;4957078;29;19918;-85
2023/02/02 13:41:27;;;;;;;;;;;;;;;2.73;100.00;100708.47;4952369;28;20375;-85
2023/02/02 13:43:56;;;;;;;;;;;;;;;2.72;100.00;100702.34;4936506;29;20065;-86
2023/02/02 13:46:37;;;;;;;;;;;;;;;2.70;100.00;100703.22;4937865;29;19926;-86
2023/02/02 13:49:20;;;;;;;;;;;;;;;2.68;100.00;100700.59;4937951;29;20294;-87
2023/02/02 13:51:55;;;;;;;;;;;;;;;2.71;100.00;100705.84;4951784;29;19923;-87
2023/02/02 13:54:23;;;;;;;;;;;;;;;2.70;100.00;100705.84;4937653;29;19919;-86
2023/02/02 13:57:14;;;;;;;;;;;;;;;2.66;100.00;100698.84;4946226;29;19918;-90
2023/02/02 14:00:03;;;;;;;;;;;;;;;2.63;100.00;100697.09;4945117;29;19961;-89
2023/02/02 14:02:46;;;;;;;;;;;;;;;2.61;100.00;100698.81;4955563;29;19929;-86
2023/02/02 14:05:20;;;;;;;;;;;;;;;2.63;100.00;100696.19;4955088;29;20334;-87
2023/02/02 14:07:46;;;;;;;;;;;;;;;2.64;100.00;100698.81;4956428;29;19942;-89
2023/02/02 14:10:25;;;;;;;;;;;;;;;2.61;100.00;100697.94;4956549;29;19919;-89
2023/02/02 14:12:50;;;;;;;;;;;;;;;2.59;100.00;100703.19;4953096;29;20267;-93
2023/02/02 14:15:16;;;;;;;;;;;;;;;2.59;100.00;100710.16;4956269;29;19926;-86
2023/02/02 14:17:41;;;;;;;;;;;;;;;2.61;100.00;100709.28;4954654;29;19918;-86
2023/02/02 14:20:26;;;;;;;;;;;;;;;2.61;100.00;100704.03;4955357;29;19985;-86
2023/02/02 14:22:53;;;;;;;;;;;;;;;2.57;100.00;100704.91;4956064;29;19919;-85
2023/02/02 14:25:35;;;;;;;;;;;;;;;2.56;100.00;100711.00;4956319;29;19922;-86
2023/02/02 14:28:11;;;;;;;;;;;;;;;2.54;100.00;100710.13;4952336;29;20344;-87
2023/02/02 14:30:37;;;;;;;;;;;;;;;2.61;100.00;100718.88;4954897;29;20289;-85
2023/02/02 14:33:21;;;;;;;;;;;;;;;2.55;100.00;100724.94;4956008;29;19929;-85
2023/02/02 14:35:46;;;;;;;;;;;;;;;2.56;100.00;100720.59;4954954;29;20013;-85
2023/02/02 14:38:17;;;;;;;;;;;;;;;2.55;100.00;100735.41;4953558;29;20425;-84
2023/02/02 14:40:51;;;;;;;;;;;;;;;2.55;100.00;100738.03;4935454;29;20116;-87
2023/02/02 14:46:06;;;;;;;;;;;;;;;2.51;100.00;100734.53;4955858;29;19925;-86
2023/02/02 14:48:39;;;;;;;;;;;;;;;2.50;100.00;100742.38;4954447;29;19926;-86
2023/02/02 14:51:31;;;;;;;;;;;;;;;2.52;100.00;100751.09;4955523;29;20446;-86
2023/02/02 14:53:58;;;;;;;;;;;;;;;2.50;100.00;100753.69;4953397;28;20417;-86
2023/02/02 14:56:53;;;;;;;;;;;;;;;2.48;100.00;100751.97;4955696;29;19923;-87
2023/02/02 14:59:33;;;;;;;;;;;;;;;2.52;100.00;100748.47;4943061;28;19929;-86
2023/02/02 15:02:01;;;;;;;;;;;;;;;2.51;100.00;100746.75;4936463;29;19962;-86
2023/02/02 15:04:27;;;;;;;;;;;;;;;2.48;100.00;100744.97;4933618;29;20382;-87
2023/02/02 15:06:55;;;;;;;;;;;;;;;2.47;100.00;100743.25;4955435;29;20023;-87
2023/02/02 15:09:32;;;;;;;;;;;;;;;2.48;100.00;100749.34;4955448;29;19954;-87
2023/02/02 15:12:03;;;;;;;;;;;;;;;2.49;100.00;100761.53;4952438;29;19922;-87
2023/02/02 15:14:28;;;;;;;;;;;;;;;2.48;100.00;100757.19;4954471;29;20400;-87
2023/02/02 15:16:54;;;;;;;;;;;;;;;2.44;100.00;100769.38;4954224;29;20005;-86
2023/02/02 15:19:23;;;;;;;;;;;;;;;2.49;100.00;100772.00;4953270;29;19966;-88
2023/02/02 15:21:52;;;;;;;;;;;;;;;2.47;100.00;100778.97;4954319;29;19926;-87
2023/02/02 15:24:20;;;;;;;;;;;;;;;2.48;100.00;100796.44;4954363;29;19923;-87
2023/02/02 15:26:46;;;;;;;;;;;;;;;2.49;100.00;100792.94;4954348;29;19936;-87
2023/02/02 15:29:37;;;;;;;;;;;;;;;2.48;100.00;100785.97;4953003;29;19924;-87
2023/02/02 15:32:07;;;;;;;;;;;;;;;2.45;100.00;100792.03;4946652;29;19923;-89
2023/02/02 15:34:36;;;;;;;;;;;;;;;2.43;100.00;100793.78;4935942;29;19925;-91
2023/02/02 15:37:04;;;;;;;;;;;;;;;2.45;100.00;100796.41;4948173;29;19925;-89
2023/02/02 15:39:30;;;;;;;;;;;;;;;2.42;100.00;100801.63;4953140;29;20374;-89
2023/02/02 15:44:40;;;;;;;;;;;;;;;2.45;100.00;100807.75;4950907;29;19926;-90
2023/02/02 15:47:07;;;;;;;;;;;;;;;2.44;100.00;100815.59;4952778;29;19923;-88
2023/02/02 15:49:34;;;;;;;;;;;;;;;2.42;100.00;100809.47;4953783;29;20147;-89
2023/02/02 15:52:02;;;;;;;;;;;;;;;2.44;100.00;100820.81;4953206;29;19925;-88
2023/02/02 15:54:29;;;;;;;;;;;;;;;2.48;100.00;100817.38;4955048;29;19976;-90
2023/02/02 15:57:00;;;;;;;;;;;;;;;2.41;100.00;100824.31;4952948;29;19918;-89
2023/02/02 15:59:29;;;;;;;;;;;;;;;2.41;100.00;100826.91;4932093;29;20036;-90
2023/02/02 16:02:10;;;;;;;;;;;;;;;2.69;100.00;100827.97;4932783;29;19919;-89
2023/02/02 16:04:38;;;;;;;;;;;;;;;2.92;100.00;100829.84;4928505;29;20001;-89
2023/02/02 16:07:05;;;;;;;;;;;;;;;2.98;100.00;100835.09;4937424;29;19923;-86
2023/02/02 16:09:35;;;;;;;;;;;;;;;2.98;100.00;100840.31;4936475;29;19926;-87
2023/02/02 16:12:08;;;;;;;;;;;;;;;3.26;100.00;100848.31;4935079;29;19929;-89
2023/02/02 16:14:37;;;;;;;;;;;;;;;3.65;100.00;100836.22;4936971;29;20078;-90
2023/02/02 16:17:25;;;;;;;;;;;;;;;3.89;100.00;100845.84;4937055;29;19922;-88
2023/02/02 16:19:56;;;;;;;;;;;;;;;4.10;100.00;100847.66;4937093;29;19926;-87
2023/02/02 16:22:24;;;;;;;;;;;;;;;4.24;100.00;100838.91;4931893;29;19914;-87
2023/02/02 16:24:54;;;;;;;;;;;;;;;4.35;100.00;100842.41;4935502;29;19923;-88
2023/02/02 16:27:24;;;;;;;;;;;;;;;4.43;100.00;100842.41;4933466;29;20762;-89
2023/02/02 16:29:50;;;;;;;;;;;;;;;4.50;100.00;100847.63;4937412;29;19930;-89
2023/02/02 16:35:45;;;;;;;;;;;;;;;4.64;100.00;100851.97;4912299;29;19930;-89
2023/02/02 16:38:23;;;;;;;;;;;;;;;4.69;100.00;100848.50;4947953;28;19919;-93
2023/02/02 16:40:59;;;;;;;;;;;;;;;4.75;100.00;100857.22;4954280;29;20326;-91
2023/02/02 16:43:43;;;;;;;;;;;;;;;4.79;100.00;100849.34;4946313;29;20331;-94
2023/02/02 16:46:16;;;;;;;;;;;;;;;4.85;100.00;100848.44;4952841;29;19926;-94
2023/02/02 16:49:00;;;;;;;;;;;;;;;4.89;100.00;100861.56;4951660;29;20370;-90
2023/02/02 16:51:55;;;;;;;;;;;;;;;4.95;100.00;100865.94;4956932;29;19929;-95
2023/02/02 16:54:20;;;;;;;;;;;;;;;4.97;100.00;100866.81;4922881;28;19970;-92
2023/02/02 17:00:05;;;;;;;;;;;;;;;5.04;100.00;100873.81;4900807;29;19922;-89
2023/02/02 17:06:14;;;;;;;;;;;;;;;5.11;100.00;100882.53;4907795;29;19931;-90
2023/02/02 17:09:06;;;;;;;;;;;;;;;5.15;100.00;100881.63;5011827;23;19933;-93
2023/02/02 17:11:36;;;;;;;;;;;;;;;5.16;100.00;100875.50;4912366;28;19926;-90
2023/02/02 17:17:06;;;;;;;;;;;;;;;5.22;100.00;100882.50;4973241;28;20285;-88
2023/02/02 17:19:40;;;;;;;;;;;;;;;5.25;100.00;100888.63;4973301;28;19977;-92
2023/02/02 17:22:08;;;;;;;;;;;;;;;5.27;100.00;100883.34;4958282;28;19922;-89
2023/02/02 17:24:36;;;;;;;;;;;;;;;5.28;100.00;100878.09;4959150;28;20296;-89
2023/02/02 17:27:02;;;;;;;;;;;;;;;5.30;100.00;100872.84;4971704;28;19937;-88
2023/02/02 17:29:27;;;;;;;;;;;;;;;5.32;100.00;100881.59;4971562;28;20285;-88
2023/02/02 17:32:13;;;;;;;;;;;;;;;5.33;100.00;100870.19;4959079;28;20392;-88
2023/02/02 17:34:38;;;;;;;;;;;;;;;5.35;100.00;100865.81;4949068;28;19918;-89
2023/02/02 17:37:04;;;;;;;;;;;;;;;5.38;100.00;100878.94;4973702;28;19940;-89
2023/02/02 17:39:32;;;;;;;;;;;;;;;5.40;100.00;100871.91;4974326;28;19922;-89
2023/02/02 17:42:00;;;;;;;;;;;;;;;5.43;100.00;100878.91;4942261;28;19937;-88
2023/02/02 17:44:26;;;;;;;;;;;;;;;5.43;100.00;100876.28;4974139;28;19922;-87
2023/02/02 17:46:54;;;;;;;;;;;;;;;5.46;100.00;100889.41;4976298;28;19914;-89
2023/02/02 17:49:45;;;;;;;;;;;;;;;5.49;100.00;100892.03;4970180;28;19930;-89
2023/02/02 17:52:11;;;;;;;;;;;;;;;5.49;100.00;100894.66;4948904;28;20067;-91
2023/02/02 17:54:36;;;;;;;;;;;;;;;5.52;100.00;100901.66;4973087;28;20341;-89
2023/02/02 17:57:02;;;;;;;;;;;;;;;5.54;100.00;100899.91;4974228;28;19914;-89
2023/02/02 17:59:27;;;;;;;;;;;;;;;5.56;100.00;100908.66;4974145;28;20337;-88
2023/02/02 18:02:06;;;;;;;;;;;;;;;5.57;100.00;100903.38;4974132;28;19922;-87
2023/02/02 18:04:33;;;;;;;;;;;;;;;5.59;100.00;100908.63;4958092;28;19915;-90
2023/02/02 18:07:06;;;;;;;;;;;;;;;5.59;100.00;100909.50;4973985;28;19964;-89
2023/02/02 18:09:39;;;;;;;;;;;;;;;5.60;100.00;100903.38;4956638;28;19922;-88
2023/02/02 18:12:07;;;;;;;;;;;;;;;5.62;100.00;100906.88;4974557;28;20289;-88
2023/02/02 18:14:37;;;;;;;;;;;;;;;5.64;100.00;100899.84;4973190;28;19918;-89
2023/02/02 18:17:03;;;;;;;;;;;;;;;5.67;100.00;100895.47;4951780;28;19922;-87
2023/02/02 18:19:57;;;;;;;;;;;;;;;5.67;100.00;100898.09;4974131;28;19926;-90
2023/02/02 18:22:28;;;;;;;;;;;;;;;5.70;100.00;100903.34;4975059;28;19922;-88
2023/02/02 18:24:53;;;;;;;;;;;;;;;5.71;100.00;100899.81;4958194;28;19922;-87
2023/02/02 18:27:19;;;;;;;;;;;;;;;5.73;100.00;100898.06;4971555;28;19922;-89
2023/02/02 18:29:44;;;;;;;;;;;;;;;5.75;100.00;100904.19;4955804;28;20303;-89
2023/02/02 18:32:10;;;;;;;;;;;;;;;5.76;100.00;100898.91;4975470;28;19925;-87
2023/02/02 18:34:46;;;;;;;;;;;;;;;;;;;;;
2023/02/02 18:37:20;;;;;;;;;;;;;;;5.77;100.00;100898.00;4972168;28;20274;-91
2023/02/02 18:39:46;;;;;;;;;;;;;;;5.80;100.00;100897.13;4939146;29;19923;-90
2023/02/02 18:42:23;;;;;;;;;;;;;;;;;;;;;
2023/02/02 18:45:06;;;;;;;;;;;;;;;5.83;100.00;100902.38;4974461;28;19929;-91
2023/02/02 18:47:57;;;;;;;;;;;;;;;5.82;100.00;100912.03;4955231;28;19956;-93
2023/02/02 18:50:23;;;;;;;;;;;;;;;5.84;100.00;100914.66;4966520;28;19961;-88
2023/02/02 18:52:48;;;;;;;;;;;;;;;5.86;100.00;100915.50;4972881;28;19945;-86
2023/02/02 18:55:13;;;;;;;;;;;;;;;5.87;100.00;100916.38;4952320;28;19927;-89
2023/02/02 18:57:38;;;;;;;;;;;;;;;5.90;100.00;100922.50;4954838;28;19918;-90
2023/02/02 19:00:20;;;;;;;;;;;;;;;;;;;;;
2023/02/02 19:02:50;;;;;;;;;;;;;;;6.02;100.00;100915.47;4970344;28;19923;-89
2023/02/02 19:08:09;;;;;;;;;;;;;;;6.06;100.00;100902.25;4968914;28;19929;-89
2023/02/02 19:10:34;;;;;;;;;;;;;;;6.06;100.00;100904.03;4967869;28;20312;-88
2023/02/02 19:13:16;;;;;;;;;;;;;;;6.07;100.00;100897.88;4972492;28;19962;-88
2023/02/02 19:16:15;;;;;;;;;;;;;;;;;;;;;
2023/02/02 19:18:41;;;;;;;;;;;;;;;6.12;100.00;100904.00;4973672;28;19927;-85
2023/02/02 19:21:10;;;;;;;;;;;;;;;6.10;100.00;100904.00;4972616;28;20460;-87
2023/02/02 19:23:36;;;;;;;;;;;;;;;6.11;100.00;100911.03;4974319;28;19945;-88
2023/02/02 19:26:10;;;;;;;;;;;;;;;6.12;100.00;100904.84;4973650;28;20469;-88
2023/02/02 19:28:40;;;;;;;;;;;;;;;6.13;100.00;100903.97;4973168;28;20285;-89
2023/02/02 19:31:20;;;;;;;;;;;;;;;6.14;100.00;100910.09;4954494;28;19957;-89
2023/02/02 19:33:47;;;;;;;;;;;;;;;6.15;100.00;100906.59;4956038;28;20282;-87
2023/02/02 19:36:17;;;;;;;;;;;;;;;6.16;100.00;100903.09;4955078;28;20032;-86
2023/02/02 19:38:43;;;;;;;;;;;;;;;6.15;100.00;100909.22;4970661;28;19946;-88
2023/02/02 19:41:14;;;;;;;;;;;;;;;6.16;100.00;100901.34;4956757;28;19918;-86
2023/02/02 19:43:43;;;;;;;;;;;;;;;6.18;100.00;100906.59;4955609;28;19926;-87
2023/02/02 19:46:14;;;;;;;;;;;;;;;6.18;100.00;100906.59;4973246;28;19968;-87
2023/02/02 19:48:39;;;;;;;;;;;;;;;6.19;100.00;100910.97;4973325;28;20437;-90
2023/02/02 19:51:23;;;;;;;;;;;;;;;6.19;100.00;100910.97;4974101;28;19922;-87
2023/02/02 19:53:48;;;;;;;;;;;;;;;5.19;100.00;100912.28;4970870;28;20025;-88
2023/02/02 19:56:26;;;;;;;;;;;;;;;4.73;100.00;100912.38;4952347;28;20013;-86
2023/02/02 19:58:51;;;;;;;;;;;;;;;4.49;100.00;100913.25;4955799;28;20512;-87
2023/02/02 20:01:18;;;;;;;;;;;;;;;4.33;100.00;100917.63;4955778;28;19922;-87
2023/02/02 20:03:45;;;;;;;;;;;;;;;4.23;100.00;100926.34;4955872;28;20385;-85
2023/02/02 20:06:29;;;;;;;;;;;;;;;4.09;100.00;100921.97;4940159;28;20036;-85
2023/02/02 20:08:55;;;;;;;;;;;;;;;4.03;100.00;100924.56;4956505;28;19922;-85
2023/02/02 20:11:35;;;;;;;;;;;;;;;3.98;100.00;100926.31;4969524;28;20021;-87
2023/02/02 20:14:20;;;;;;;;;;;;;;;3.92;100.00;100916.66;4953497;29;20289;-86
2023/02/02 20:17:05;;;;;;;;;;;;;;;3.86;100.00;100906.19;4969273;28;19954;-88
2023/02/02 20:19:34;;;;;;;;;;;;;;;3.81;100.00;100919.28;4971760;28;20008;-87
2023/02/02 20:21:59;;;;;;;;;;;;;;;3.73;100.00;100912.25;4971983;28;19922;-87
2023/02/02 20:24:31;;;;;;;;;;;;;;;3.71;100.00;100912.25;4955720;28;19929;-87
2023/02/02 20:27:14;;;;;;;;;;;;;;;3.72;100.00;100923.59;4952205;28;20361;-92
2023/02/02 20:29:40;;;;;;;;;;;;;;;3.68;100.00;100920.09;4913608;29;19930;-91
2023/02/02 20:32:24;;;;;;;;;;;;;;;;;;;;;
2023/02/02 20:34:58;;;;;;;;;;;;;;;3.65;100.00;100927.94;4912889;29;19939;-88
2023/02/02 20:37:28;;;;;;;;;;;;;;;3.61;100.00;100926.22;4897633;29;19970;-91
2023/02/02 20:40:09;;;;;;;;;;;;;;;3.58;100.00;100926.19;4914466;29;20354;-93
2023/02/02 20:42:58;;;;;;;;;;;;;;;3.53;100.00;100933.16;4897322;29;19919;-90
2023/02/02 20:45:24;;;;;;;;;;;;;;;3.52;100.00;100931.41;4887785;29;20391;-88
2023/02/02 20:47:58;;;;;;;;;;;;;;;3.51;100.00;100921.78;4897695;29;19923;-88
2023/02/02 20:50:45;;;;;;;;;;;;;;;3.45;100.00;100915.66;4913771;29;19930;-89
2023/02/02 20:53:09;;;;;;;;;;;;;;;3.43;100.00;100922.63;4919251;28;20072;-87